createdAt,value
2022-08-04T00:01:50.862Z,26.10
2022-08-04T00:04:29.273Z,25.20
2022-08-04T00:07:09.301Z,24.50
2022-08-04T00:09:42.701Z,25.60
2022-08-04T00:12:12.857Z,27.60
2022-08-04T00:14:49.374Z,32.50
2022-08-04T00:17:21.182Z,28.80
2022-08-04T00:19:50.126Z,32.90
2022-08-04T00:22:23.222Z,34.10
2022-08-04T00:24:51.156Z,34.10
2022-08-04T00:27:19.383Z,38.80
2022-08-04T00:29:48.451Z,43.50
2022-08-04T00:32:33.821Z,44.70
2022-08-04T00:35:03.814Z,44.00
2022-08-04T00:37:34.831Z,47.70
2022-08-04T00:40:07.470Z,46.00
2022-08-04T00:42:58.464Z,46.40
2022-08-04T00:46:10.913Z,49.40
2022-08-04T00:48:58.032Z,48.20
2022-08-04T00:51:38.613Z,53.50
2022-08-04T00:54:22.209Z,61.70
2022-08-04T00:57:34.055Z,57.10
2022-08-04T01:00:07.753Z,68.30
2022-08-04T01:02:40.589Z,68.10
2022-08-04T01:05:12.356Z,71.40
2022-08-04T01:08:13.534Z,79.40
2022-08-04T01:10:58.017Z,81.30
2022-08-04T01:13:53.111Z,88.60
2022-08-04T01:16:25.770Z,84.40
2022-08-04T01:18:59.966Z,84.80
2022-08-04T01:22:01.495Z,87.20
2022-08-04T01:25:11.182Z,90.50
2022-08-04T01:27:58.612Z,91.40
2022-08-04T01:30:30.563Z,95.30
2022-08-04T01:33:03.599Z,93.30
2022-08-04T01:35:47.192Z,89.30
2022-08-04T01:38:21.417Z,89.00
2022-08-04T01:40:54.379Z,90.60
2022-08-04T01:43:22.467Z,90.50
2022-08-04T01:45:57.908Z,91.10
2022-08-04T01:48:27.231Z,91.70
2022-08-04T01:50:58.159Z,92.80
2022-08-04T01:53:32.967Z,92.90
2022-08-04T01:56:02.779Z,91.60
2022-08-04T01:58:33.024Z,90.30
2022-08-04T02:01:08.193Z,92.70
2022-08-04T02:04:18.525Z,94.00
2022-08-04T02:06:39.047Z,92.40
2022-08-04T02:09:17.855Z,92.20
2022-08-04T02:11:57.346Z,94.30
2022-08-04T02:14:45.666Z,95.20
2022-08-04T02:17:18.682Z,95.30
2022-08-04T02:20:00.873Z,98.00
2022-08-04T02:22:30.010Z,99.90
2022-08-04T02:25:02.634Z,1.00
2022-08-04T02:27:59.827Z,62.80
2022-08-04T02:30:27.233Z,76.70
2022-08-04T02:32:59.007Z,85.10
2022-08-04T02:35:28.644Z,99.90
2022-08-04T02:38:05.748Z,92.00
2022-08-04T02:40:34.928Z,23.90
2022-08-04T02:43:07.172Z,80.60
2022-08-04T02:45:38.051Z,1.00
2022-08-04T02:48:30.439Z,1.00
2022-08-04T02:51:00.250Z,1.00
2022-08-04T02:53:30.359Z,1.00
2022-08-04T02:56:03.607Z,99.90
2022-08-04T02:58:35.296Z,78.80
2022-08-04T03:01:03.342Z,1.00
2022-08-04T03:03:40.600Z,99.90
2022-08-04T03:06:48.042Z,99.90
2022-08-04T03:10:01.023Z,99.90
2022-08-04T03:13:08.607Z,99.90
2022-08-04T03:16:38.533Z,99.90
2022-08-04T03:19:45.725Z,99.90
2022-08-04T03:22:59.764Z,99.90
2022-08-04T03:25:56.779Z,99.90
2022-08-04T03:28:48.994Z,99.90
2022-08-04T03:31:46.623Z,99.90
2022-08-04T03:34:33.456Z,99.90
2022-08-04T03:37:18.003Z,99.90
2022-08-04T03:40:21.881Z,99.90
2022-08-04T03:43:58.000Z,99.90
2022-08-04T03:46:38.199Z,99.90
2022-08-04T03:49:39.617Z,99.90
2022-08-04T03:52:39.360Z,99.90
2022-08-04T03:55:31.733Z,99.90
2022-08-04T03:58:44.422Z,99.90
2022-08-04T04:01:26.937Z,99.90
2022-08-04T04:04:29.012Z,99.90
2022-08-04T04:07:39.318Z,99.90
2022-08-04T04:10:28.954Z,99.90
2022-08-04T04:13:25.984Z,99.90
2022-08-04T04:16:21.284Z,99.90
2022-08-04T04:19:08.730Z,99.90
2022-08-04T04:21:59.184Z,99.90
2022-08-04T04:24:50.699Z,99.90
2022-08-04T04:27:30.947Z,99.90
2022-08-04T04:30:12.385Z,99.90
2022-08-04T04:32:55.974Z,99.90
2022-08-04T04:35:37.941Z,99.90
2022-08-04T04:38:31.820Z,99.90
2022-08-04T04:41:27.004Z,99.90
2022-08-04T04:44:43.990Z,99.90
2022-08-04T04:48:09.253Z,99.90
2022-08-04T04:50:15.744Z,99.90
2022-08-04T04:52:50.027Z,99.90
2022-08-04T04:55:22.593Z,99.90
2022-08-04T04:57:55.530Z,99.90
2022-08-04T05:00:24.364Z,99.90
2022-08-04T05:03:18.196Z,99.90
2022-08-04T05:06:01.615Z,96.80
2022-08-04T05:09:14.639Z,91.30
2022-08-04T05:12:18.522Z,96.70
2022-08-04T05:15:09.574Z,98.50
2022-08-04T05:17:40.935Z,99.10
2022-08-04T05:20:12.133Z,99.90
2022-08-04T05:22:44.554Z,99.90
2022-08-04T05:25:22.397Z,99.30
2022-08-04T05:27:54.268Z,99.90
2022-08-04T05:30:27.638Z,96.50
2022-08-04T05:33:00.105Z,94.20
2022-08-04T05:35:38.989Z,90.70
2022-08-04T05:38:27.553Z,82.70
2022-08-04T05:40:56.494Z,74.10
2022-08-04T05:43:25.312Z,72.70
2022-08-04T05:45:57.755Z,67.80
2022-08-04T05:48:26.347Z,63.30
2022-08-04T05:50:58.972Z,53.60
2022-08-04T05:53:29.940Z,45.60
2022-08-04T05:55:59.949Z,38.20
2022-08-04T05:58:31.264Z,32.20
2022-08-04T06:01:02.840Z,31.10
2022-08-04T06:03:31.793Z,32.70
2022-08-04T06:06:00.860Z,25.90
2022-08-04T06:08:30.077Z,23.80
2022-08-04T06:11:01.221Z,22.20
2022-08-04T06:13:46.636Z,19.20
2022-08-04T06:16:29.729Z,19.60
2022-08-04T06:20:02.635Z,16.50
2022-08-04T06:21:52.250Z,16.90
2022-08-04T06:24:21.909Z,13.60
2022-08-04T06:26:51.526Z,11.90
2022-08-04T06:29:24.923Z,11.50
2022-08-04T06:32:30.444Z,8.20
2022-08-04T06:34:53.069Z,7.10
2022-08-04T06:37:41.199Z,5.30
2022-08-04T06:40:30.664Z,4.40
2022-08-04T06:43:00.577Z,2.70
2022-08-04T06:45:28.814Z,2.60
2022-08-04T06:47:59.310Z,3.80
2022-08-04T06:51:26.578Z,2.60
2022-08-04T06:53:17.191Z,1.00
2022-08-04T06:55:47.748Z,1.70
2022-08-04T06:58:17.349Z,2.00
2022-08-04T07:00:47.744Z,2.80
2022-08-04T07:03:18.533Z,1.00
2022-08-04T07:05:48.555Z,1.00
2022-08-04T07:08:17.499Z,1.00
2022-08-04T07:10:46.685Z,1.00
2022-08-04T07:13:15.248Z,1.00
2022-08-04T07:15:45.822Z,1.00
2022-08-04T07:18:13.889Z,1.00
2022-08-04T07:20:44.787Z,1.00
2022-08-04T07:23:17.453Z,1.00
2022-08-04T07:25:59.911Z,1.00
2022-08-04T07:28:40.142Z,1.00
2022-08-04T07:31:32.022Z,1.00
2022-08-04T07:34:17.708Z,1.00
2022-08-04T07:36:55.069Z,1.00
2022-08-04T07:39:28.048Z,1.00
2022-08-04T07:42:02.621Z,1.00
2022-08-04T07:44:32.132Z,1.00
2022-08-04T07:47:01.545Z,1.00
2022-08-04T07:49:55.900Z,1.00
2022-08-04T07:52:19.440Z,1.00
2022-08-04T07:54:48.805Z,1.00
2022-08-04T07:57:39.770Z,1.00
2022-08-04T08:00:10.923Z,1.00
2022-08-04T08:02:39.817Z,1.00
2022-08-04T08:05:10.038Z,1.00
2022-08-04T08:07:50.629Z,1.00
2022-08-04T08:10:22.743Z,1.00
2022-08-04T08:12:52.612Z,1.00
2022-08-04T08:15:21.516Z,1.00
2022-08-04T08:17:59.129Z,1.00
2022-08-04T08:20:30.360Z,1.00
2022-08-04T08:23:00.593Z,1.00
2022-08-04T08:25:29.040Z,1.00
2022-08-04T08:27:57.056Z,1.00
2022-08-04T08:30:32.053Z,1.00
2022-08-04T08:33:02.365Z,1.00
2022-08-04T08:35:51.164Z,1.00
2022-08-04T08:38:34.306Z,1.00
2022-08-04T08:41:27.152Z,1.00
2022-08-04T08:44:19.328Z,1.00
2022-08-04T08:47:08.405Z,1.00
2022-08-04T08:50:12.000Z,1.00
2022-08-04T08:53:11.381Z,1.00
2022-08-04T08:55:49.217Z,1.00
2022-08-04T08:58:36.848Z,1.00
2022-08-04T09:01:13.330Z,1.00
2022-08-04T09:04:02.541Z,1.00
2022-08-04T09:06:51.981Z,1.00
2022-08-04T09:09:38.367Z,1.00
2022-08-04T09:12:25.659Z,1.00
2022-08-04T09:14:59.988Z,1.00
2022-08-04T09:17:31.039Z,1.00
2022-08-04T09:20:04.011Z,1.00
2022-08-04T09:22:39.323Z,1.00
2022-08-04T09:25:13.546Z,1.00
2022-08-04T09:27:51.257Z,1.00
2022-08-04T09:30:21.576Z,1.00
2022-08-04T09:32:59.867Z,1.00
2022-08-04T09:35:41.378Z,1.00
2022-08-04T09:38:20.300Z,1.00
2022-08-04T09:40:57.164Z,1.00
2022-08-04T09:44:42.937Z,1.00
2022-08-04T09:46:30.685Z,1.00
2022-08-04T09:49:03.247Z,1.00
2022-08-04T09:51:58.451Z,1.00
2022-08-04T09:54:34.959Z,1.00
2022-08-04T09:57:11.236Z,1.00
2022-08-04T09:59:49.901Z,1.00
2022-08-04T10:02:22.954Z,1.00
2022-08-04T10:04:54.278Z,1.00
2022-08-04T10:07:41.477Z,1.00
2022-08-04T10:10:20.200Z,1.00
2022-08-04T10:13:13.635Z,1.00
2022-08-04T10:15:53.300Z,1.00
2022-08-04T10:18:40.935Z,1.00
2022-08-04T10:21:17.349Z,1.00
2022-08-04T10:24:00.804Z,1.00
2022-08-04T10:26:46.437Z,1.00
2022-08-04T10:29:19.051Z,1.00
2022-08-04T10:31:56.323Z,1.00
2022-08-04T10:34:29.294Z,1.00
2022-08-04T10:37:04.225Z,1.00
2022-08-04T10:39:42.921Z,1.00
2022-08-04T10:42:22.757Z,1.00
2022-08-04T10:45:04.466Z,1.00
2022-08-04T10:47:44.875Z,1.00
2022-08-04T10:50:22.537Z,1.00
2022-08-04T10:52:58.711Z,1.00
2022-08-04T10:56:08.084Z,1.00
2022-08-04T10:58:47.854Z,1.00
2022-08-04T11:01:50.516Z,1.00
2022-08-04T11:04:27.541Z,1.00
2022-08-04T11:06:57.246Z,1.00
2022-08-04T11:09:25.385Z,1.00
2022-08-04T11:12:01.530Z,1.00
2022-08-04T11:14:36.665Z,1.00
2022-08-04T11:17:09.338Z,1.00
2022-08-04T11:19:53.339Z,1.00
2022-08-04T11:22:27.093Z,1.00
2022-08-04T11:25:05.117Z,1.00
2022-08-04T11:27:40.148Z,1.00
2022-08-04T11:30:13.433Z,1.00
2022-08-04T11:32:47.374Z,1.00
2022-08-04T11:35:32.122Z,1.00
2022-08-04T11:38:09.137Z,1.00
2022-08-04T11:41:02.724Z,1.00
2022-08-04T11:44:01.234Z,1.00
2022-08-04T11:46:31.482Z,1.00
2022-08-04T11:49:22.652Z,1.00
2022-08-04T11:51:53.922Z,1.00
2022-08-04T11:54:23.131Z,1.00
2022-08-04T11:56:53.981Z,1.00
2022-08-04T11:59:24.716Z,1.00
2022-08-04T12:02:08.631Z,1.00
2022-08-04T12:04:47.228Z,1.00
2022-08-04T12:07:33.665Z,1.00
2022-08-04T12:10:15.092Z,1.00
2022-08-04T12:12:48.863Z,1.00
2022-08-04T12:15:23.360Z,1.00
2022-08-04T12:18:03.709Z,1.00
2022-08-04T12:20:43.113Z,99.90
2022-08-04T12:23:23.066Z,1.00
2022-08-04T12:25:54.859Z,99.90
2022-08-04T12:28:46.295Z,99.90
2022-08-04T12:31:24.906Z,99.90
2022-08-04T12:34:04.469Z,99.90
2022-08-04T12:36:39.791Z,99.90
2022-08-04T12:39:12.361Z,99.90
2022-08-04T12:41:43.464Z,99.90
2022-08-04T12:44:37.227Z,99.90
2022-08-04T12:47:26.773Z,99.90
2022-08-04T12:50:00.070Z,99.90
2022-08-04T12:53:01.012Z,99.90
2022-08-04T12:55:22.715Z,99.90
2022-08-04T12:57:52.219Z,99.90
2022-08-04T13:00:39.715Z,99.90
2022-08-04T13:03:12.717Z,99.90
2022-08-04T13:05:43.194Z,99.90
2022-08-04T13:08:13.117Z,99.90
2022-08-04T13:10:45.951Z,99.90
2022-08-04T13:13:18.659Z,99.90
2022-08-04T13:15:57.571Z,99.90
2022-08-04T13:18:30.055Z,99.90
2022-08-04T13:21:19.575Z,99.90
2022-08-04T13:24:10.143Z,99.90
2022-08-04T13:26:54.090Z,99.90
2022-08-04T13:29:59.457Z,99.90
2022-08-04T13:32:18.505Z,99.90
2022-08-04T13:34:49.079Z,99.90
2022-08-04T13:37:26.437Z,99.90
2022-08-04T13:39:56.798Z,99.90
2022-08-04T13:42:28.113Z,99.90
2022-08-04T13:44:58.429Z,99.90
2022-08-04T13:47:29.882Z,99.90
2022-08-04T13:50:11.182Z,99.90
2022-08-04T13:52:39.993Z,99.90
2022-08-04T13:55:09.192Z,99.90
2022-08-04T13:57:46.558Z,99.90
2022-08-04T14:00:16.950Z,99.90
2022-08-04T14:03:03.278Z,99.90
2022-08-04T14:05:59.701Z,99.90
2022-08-04T14:08:25.808Z,99.90
2022-08-04T14:10:58.297Z,99.90
2022-08-04T14:13:41.611Z,99.90
2022-08-04T14:16:17.613Z,99.90
2022-08-04T14:18:46.300Z,99.90
2022-08-04T14:21:16.125Z,99.90
2022-08-04T14:23:48.181Z,99.90
2022-08-04T14:26:18.770Z,99.90
2022-08-04T14:29:25.037Z,99.90
2022-08-04T14:31:36.714Z,99.90
2022-08-04T14:34:27.290Z,99.90
2022-08-04T14:37:17.570Z,99.90
2022-08-04T14:40:19.252Z,99.90
2022-08-04T14:42:43.058Z,99.90
2022-08-04T14:45:13.084Z,99.90
2022-08-04T14:47:52.416Z,99.90
2022-08-04T14:50:22.779Z,99.90
2022-08-04T14:52:50.764Z,99.90
2022-08-04T14:55:21.091Z,99.90
2022-08-04T14:58:36.059Z,99.90
2022-08-04T15:00:38.981Z,99.90
2022-08-04T15:03:09.985Z,99.90
2022-08-04T15:06:02.198Z,99.90
2022-08-04T15:08:30.949Z,99.90
2022-08-04T15:11:02.756Z,99.90
2022-08-04T15:13:31.939Z,99.90
2022-08-04T15:16:07.300Z,99.90
2022-08-04T15:18:37.668Z,99.90
2022-08-04T15:21:07.894Z,99.90
2022-08-04T15:23:39.539Z,99.90
2022-08-04T15:26:11.790Z,99.90
2022-08-04T15:28:42.304Z,99.90
2022-08-04T15:32:08.015Z,99.90
2022-08-04T15:34:00.981Z,99.90
2022-08-04T15:36:37.309Z,99.90
2022-08-04T15:39:23.249Z,99.90
2022-08-04T15:41:59.807Z,99.90
2022-08-04T15:44:49.831Z,99.90
2022-08-04T15:47:19.962Z,99.90
2022-08-04T15:50:04.419Z,99.90
2022-08-04T15:53:12.580Z,99.90
2022-08-04T15:55:43.040Z,99.90
2022-08-04T15:58:13.431Z,99.90
2022-08-04T16:01:16.449Z,99.90
2022-08-04T16:03:58.501Z,99.90
2022-08-04T16:06:50.128Z,99.90
2022-08-04T16:09:45.055Z,99.90
2022-08-04T16:12:57.325Z,99.90
2022-08-04T16:15:45.494Z,99.90
2022-08-04T16:18:26.710Z,99.90
2022-08-04T16:21:03.414Z,99.90
2022-08-04T16:24:02.213Z,99.90
2022-08-04T16:26:54.582Z,99.90
2022-08-04T16:29:38.811Z,99.90
2022-08-04T16:32:16.746Z,99.90
2022-08-04T16:34:54.259Z,99.90
2022-08-04T16:37:34.433Z,99.90
2022-08-04T16:40:36.389Z,99.90
2022-08-04T16:43:08.590Z,99.90
2022-08-04T16:45:50.971Z,99.90
2022-08-04T16:48:21.005Z,99.90
2022-08-04T16:51:05.327Z,99.90
2022-08-04T16:53:52.191Z,99.90
2022-08-04T16:56:30.069Z,99.90
2022-08-04T16:58:58.200Z,99.90
2022-08-04T17:01:34.077Z,99.90
2022-08-04T17:04:06.199Z,99.90
2022-08-04T17:06:35.729Z,99.90
2022-08-04T17:09:08.295Z,99.90
2022-08-04T17:11:36.195Z,99.90
2022-08-04T17:14:06.090Z,99.90
2022-08-04T17:16:36.901Z,99.90
2022-08-04T17:19:06.861Z,99.90
2022-08-04T17:21:48.940Z,99.90
2022-08-04T17:24:18.406Z,99.90
2022-08-04T17:26:53.555Z,99.90
2022-08-04T17:32:15.824Z,99.90
2022-08-04T17:34:48.672Z,97.60
2022-08-04T17:37:38.979Z,94.50
2022-08-04T17:40:11.762Z,90.10
2022-08-04T17:42:41.370Z,83.80
2022-08-04T17:45:50.199Z,78.50
2022-08-04T17:47:58.802Z,79.70
2022-08-04T17:50:27.238Z,78.00
2022-08-04T17:53:02.494Z,72.20
2022-08-04T17:55:42.719Z,71.00
2022-08-04T17:58:21.512Z,64.10
2022-08-04T18:01:24.259Z,71.00
2022-08-04T18:03:53.250Z,63.00
2022-08-04T18:06:25.672Z,49.80
2022-08-04T18:08:59.334Z,54.50
2022-08-04T18:11:54.806Z,34.10
2022-08-04T18:14:28.597Z,36.30
2022-08-04T18:16:56.929Z,37.50
2022-08-04T18:19:25.090Z,35.40
2022-08-04T18:22:00.633Z,33.40
2022-08-04T18:24:34.005Z,26.90
2022-08-04T18:27:06.240Z,29.80
2022-08-04T18:29:39.315Z,31.10
2022-08-04T18:32:08.931Z,12.40
2022-08-04T18:34:40.973Z,21.70
2022-08-04T18:38:06.214Z,20.50
2022-08-04T18:43:03.676Z,15.50
2022-08-04T18:45:34.837Z,2.90
2022-08-04T18:48:04.302Z,2.00
2022-08-04T18:51:09.387Z,7.60
2022-08-04T18:53:35.334Z,2.90
2022-08-04T18:56:06.407Z,1.00
2022-08-04T18:58:49.420Z,1.00
2022-08-04T19:01:17.358Z,1.00
2022-08-04T19:03:48.248Z,1.00
2022-08-04T19:06:27.931Z,11.70
2022-08-04T19:08:55.935Z,1.00
2022-08-04T19:11:38.689Z,3.60
2022-08-04T19:14:14.103Z,3.40
2022-08-04T19:16:46.037Z,9.00
2022-08-04T19:19:17.827Z,6.00
2022-08-04T19:22:00.727Z,1.00
2022-08-04T19:24:34.823Z,1.00
2022-08-04T19:27:08.194Z,5.90
2022-08-04T19:29:40.669Z,1.00
2022-08-04T19:32:13.964Z,4.30
2022-08-04T19:34:46.047Z,3.30
2022-08-04T19:37:20.338Z,7.90
2022-08-04T19:40:04.706Z,3.80
2022-08-04T19:42:32.920Z,5.00
2022-08-04T19:45:02.688Z,1.00
2022-08-04T19:48:17.031Z,14.50
2022-08-04T19:50:18.829Z,7.80
2022-08-04T19:52:52.083Z,14.30
2022-08-04T19:55:22.646Z,10.10
2022-08-04T19:57:50.880Z,8.90
2022-08-04T20:00:33.294Z,22.20
2022-08-04T20:03:02.900Z,19.20
2022-08-04T20:05:34.218Z,8.60
2022-08-04T20:08:19.836Z,20.10
2022-08-04T20:10:51.808Z,20.10
2022-08-04T20:13:20.805Z,15.70
2022-08-04T20:15:58.013Z,12.10
2022-08-04T20:18:34.734Z,35.30
2022-08-04T20:21:03.428Z,29.80
2022-08-04T20:23:48.324Z,34.60
2022-08-04T20:26:18.028Z,37.60
2022-08-04T20:28:51.639Z,35.90
2022-08-04T20:31:21.842Z,37.60
2022-08-04T20:33:53.853Z,40.60
2022-08-04T20:36:23.512Z,60.00
2022-08-04T20:38:52.793Z,50.60
2022-08-04T20:41:21.073Z,50.50
2022-08-04T20:43:50.049Z,54.10
2022-08-04T20:49:09.932Z,77.90
2022-08-04T20:51:40.289Z,73.00
2022-08-04T20:54:16.752Z,79.40
2022-08-04T20:56:51.445Z,77.70
2022-08-04T20:59:19.749Z,81.60
2022-08-04T21:01:48.957Z,83.00
2022-08-04T21:04:43.535Z,92.10
2022-08-04T21:10:02.591Z,91.80
2022-08-04T21:12:31.609Z,91.60
2022-08-04T21:15:13.521Z,84.20
2022-08-04T21:17:59.018Z,87.20
2022-08-04T21:20:33.215Z,88.60
2022-08-04T21:23:05.140Z,83.30
2022-08-04T21:25:42.753Z,84.60
2022-08-04T21:28:11.909Z,75.70
2022-08-04T21:30:53.901Z,71.00
2022-08-04T21:33:22.849Z,72.80
2022-08-04T21:35:54.207Z,70.80
2022-08-04T21:38:25.353Z,69.00
2022-08-04T21:41:01.930Z,65.10
2022-08-04T21:46:18.760Z,68.10
2022-08-04T21:48:48.791Z,66.70
2022-08-04T21:51:57.455Z,63.90
2022-08-04T21:54:09.776Z,63.50
2022-08-04T21:56:43.055Z,74.40
2022-08-04T21:59:28.548Z,67.50
2022-08-04T22:01:59.995Z,59.00
2022-08-04T22:04:28.638Z,67.50
2022-08-04T22:06:57.940Z,59.90
2022-08-04T22:09:31.668Z,57.20
2022-08-04T22:12:11.593Z,67.70
2022-08-04T22:14:40.497Z,64.20
2022-08-04T22:17:13.315Z,59.50
2022-08-04T22:19:55.384Z,53.20
2022-08-04T22:22:29.684Z,56.30
2022-08-04T22:25:01.304Z,55.80
2022-08-04T22:27:55.203Z,64.30
2022-08-04T22:30:24.221Z,58.50
2022-08-04T22:33:01.113Z,61.10
2022-08-04T22:35:36.501Z,64.10
2022-08-04T22:38:26.741Z,65.50
2022-08-04T22:41:01.868Z,66.70
2022-08-04T22:43:31.834Z,70.90
2022-08-04T22:46:03.966Z,72.90
2022-08-04T22:48:33.216Z,80.80
2022-08-04T22:51:01.314Z,79.20
2022-08-04T22:53:32.237Z,87.00
2022-08-04T22:56:09.461Z,91.50
2022-08-04T22:58:44.740Z,91.90
2022-08-04T23:01:15.492Z,94.60
2022-08-04T23:03:51.090Z,97.10
2022-08-04T23:06:24.952Z,98.40
2022-08-04T23:08:54.748Z,99.90
2022-08-04T23:11:22.767Z,99.90
2022-08-04T23:13:50.819Z,99.90
2022-08-04T23:16:19.801Z,99.90
2022-08-04T23:18:48.299Z,99.90
2022-08-04T23:21:17.429Z,99.90
2022-08-04T23:24:02.463Z,99.90
2022-08-04T23:26:31.191Z,99.90
2022-08-04T23:28:59.454Z,99.90
2022-08-04T23:31:40.980Z,99.90
2022-08-04T23:34:19.631Z,99.90
2022-08-04T23:36:47.687Z,99.90
2022-08-04T23:39:16.965Z,99.90
2022-08-04T23:41:53.524Z,99.90
2022-08-04T23:44:25.287Z,99.90
2022-08-04T23:46:59.080Z,99.90
2022-08-04T23:49:43.423Z,99.90
2022-08-04T23:52:23.298Z,99.90
2022-08-04T23:54:59.539Z,99.90
2022-08-04T23:57:31.116Z,99.90
